createdAt,value
2022-10-02T00:02:14.265Z,12.73
2022-10-02T00:07:18.143Z,10.75
2022-10-02T00:12:24.260Z,12.18
2022-10-02T00:17:29.993Z,12.27
2022-10-02T00:22:38.361Z,11.70
2022-10-02T00:27:47.081Z,12.65
2022-10-02T00:32:57.949Z,11.15
2022-10-02T00:38:02.734Z,11.23
2022-10-02T00:43:15.185Z,12.85
2022-10-02T00:48:25.622Z,12.80
2022-10-02T00:53:33.750Z,14.52
2022-10-02T00:58:44.741Z,12.57
2022-10-02T01:03:53.101Z,10.68
2022-10-02T01:08:55.572Z,11.60
2022-10-02T01:13:59.692Z,14.02
2022-10-02T01:19:02.066Z,14.45
2022-10-02T01:24:07.761Z,13.77
2022-10-02T01:29:11.501Z,10.23
2022-10-02T01:34:13.883Z,7.18
2022-10-02T01:39:16.213Z,5.97
2022-10-02T01:44:19.901Z,4.68
2022-10-02T01:49:32.623Z,4.75
2022-10-02T01:54:42.043Z,5.30
2022-10-02T01:59:51.525Z,4.38
2022-10-02T02:04:55.976Z,3.92
2022-10-02T02:10:02.914Z,4.00
2022-10-02T02:15:08.662Z,4.53
2022-10-02T02:20:14.553Z,4.22
2022-10-02T02:25:19.242Z,6.30
2022-10-02T02:30:23.151Z,6.68
2022-10-02T02:35:27.251Z,5.10
2022-10-02T02:40:31.409Z,6.93
2022-10-02T02:45:37.252Z,7.97
2022-10-02T02:50:43.324Z,8.02
2022-10-02T02:55:47.640Z,7.30
2022-10-02T03:00:51.447Z,7.80
2022-10-02T03:05:58.224Z,8.45
2022-10-02T03:11:05.319Z,13.60
2022-10-02T03:16:16.945Z,17.83
2022-10-02T03:21:24.868Z,20.42
2022-10-02T03:26:31.087Z,24.55
2022-10-02T03:31:35.982Z,23.80
2022-10-02T03:36:38.770Z,24.60
2022-10-02T03:41:41.359Z,25.73
2022-10-02T03:46:45.088Z,27.75
2022-10-02T03:51:47.612Z,27.80
2022-10-02T03:56:54.176Z,27.10
2022-10-02T04:01:59.138Z,28.92
2022-10-02T04:07:04.318Z,30.75
2022-10-02T04:12:10.190Z,30.65
2022-10-02T04:17:16.753Z,33.25
2022-10-02T04:22:31.685Z,31.67
2022-10-02T04:27:35.917Z,35.88
2022-10-02T04:32:39.589Z,35.05
2022-10-02T04:37:56.877Z,32.42
2022-10-02T04:43:07.015Z,32.53
2022-10-02T04:48:30.074Z,33.03
2022-10-02T04:53:41.274Z,31.50
2022-10-02T04:58:50.074Z,34.25
2022-10-02T05:04:07.491Z,33.53
2022-10-02T05:09:14.963Z,32.72
2022-10-02T05:14:42.794Z,33.20
2022-10-02T05:19:57.152Z,34.95
2022-10-02T05:25:08.966Z,31.73
2022-10-02T05:30:12.905Z,29.25
2022-10-02T05:35:22.178Z,31.08
2022-10-02T05:40:31.495Z,31.15
2022-10-02T05:45:37.321Z,30.02
2022-10-02T05:50:39.649Z,29.13
2022-10-02T05:55:45.871Z,27.08
2022-10-02T06:00:50.576Z,27.10
2022-10-02T06:05:55.700Z,26.42
2022-10-02T06:11:01.747Z,28.40
2022-10-02T06:16:09.619Z,27.75
2022-10-02T06:21:24.190Z,26.27
2022-10-02T06:26:31.090Z,25.38
2022-10-02T06:31:37.201Z,25.15
2022-10-02T06:36:48.375Z,22.27
2022-10-02T06:41:59.766Z,22.90
2022-10-02T06:47:07.791Z,20.48
2022-10-02T06:52:14.015Z,21.63
2022-10-02T06:57:27.344Z,20.90
2022-10-02T07:02:44.637Z,21.50
2022-10-02T07:07:51.053Z,17.25
2022-10-02T07:13:12.510Z,17.80
2022-10-02T07:18:21.187Z,15.27
2022-10-02T07:23:41.974Z,14.85
2022-10-02T07:28:47.207Z,10.50
2022-10-02T07:33:59.706Z,11.85
2022-10-02T07:39:08.541Z,10.77
2022-10-02T07:44:19.072Z,10.40
2022-10-02T07:49:28.794Z,9.75
2022-10-02T07:54:55.240Z,8.50
2022-10-02T08:00:00.335Z,6.90
2022-10-02T08:05:05.932Z,7.50
2022-10-02T08:10:11.237Z,5.00
2022-10-02T08:15:16.062Z,4.85
2022-10-02T08:20:26.331Z,3.75
2022-10-02T08:25:32.624Z,4.20
2022-10-02T08:30:35.467Z,3.90
2022-10-02T08:35:43.032Z,3.30
2022-10-02T08:41:04.199Z,3.00
2022-10-02T08:46:24.773Z,2.78
2022-10-02T08:51:42.054Z,3.15
2022-10-02T08:56:49.686Z,2.95
2022-10-02T09:02:02.026Z,2.90
2022-10-02T09:07:15.625Z,3.72
2022-10-02T09:12:35.269Z,3.67
2022-10-02T09:17:48.557Z,3.25
2022-10-02T09:28:14.133Z,3.33
2022-10-02T09:33:27.174Z,2.67
2022-10-02T09:38:55.773Z,2.60
2022-10-02T09:44:13.154Z,2.58
2022-10-02T09:49:42.233Z,3.10
2022-10-02T09:55:17.823Z,3.17
2022-10-02T10:00:22.936Z,2.85
2022-10-02T10:05:42.899Z,3.05
2022-10-02T10:11:03.055Z,2.80
2022-10-02T10:16:28.434Z,3.53
2022-10-02T10:21:49.351Z,2.97
2022-10-02T10:27:07.991Z,2.80
2022-10-02T10:32:34.899Z,1.90
2022-10-02T10:38:00.814Z,2.50
2022-10-02T10:43:20.901Z,2.88
2022-10-02T10:48:34.758Z,2.15
2022-10-02T10:53:52.892Z,2.30
2022-10-02T10:59:12.121Z,2.78
2022-10-02T11:04:26.489Z,2.47
2022-10-02T11:09:48.174Z,2.95
2022-10-02T11:14:59.139Z,2.53
2022-10-02T11:20:24.437Z,2.40
2022-10-02T11:25:46.784Z,2.88
2022-10-02T11:30:55.885Z,2.50
2022-10-02T11:36:08.691Z,2.72
2022-10-02T11:41:28.734Z,2.10
2022-10-02T11:46:48.482Z,2.53
2022-10-02T11:52:06.070Z,2.35
2022-10-02T11:57:22.371Z,2.55
2022-10-02T12:02:27.310Z,2.55
2022-10-02T12:07:39.589Z,2.70
2022-10-02T12:12:51.034Z,2.70
2022-10-02T12:17:58.091Z,1.70
2022-10-02T12:23:25.161Z,2.10
2022-10-02T12:28:33.353Z,2.33
2022-10-02T12:33:42.509Z,2.58
2022-10-02T12:38:53.422Z,2.15
2022-10-02T12:44:05.275Z,2.42
2022-10-02T12:49:27.712Z,1.92
2022-10-02T12:54:48.911Z,2.10
2022-10-02T12:59:55.756Z,2.10
2022-10-02T13:05:20.801Z,2.60
2022-10-02T13:10:24.250Z,3.35
2022-10-02T13:15:37.308Z,2.45
2022-10-02T13:20:40.649Z,2.78
2022-10-02T13:25:49.930Z,2.45
2022-10-02T13:30:57.840Z,2.00
2022-10-02T13:36:07.846Z,2.40
2022-10-02T13:41:18.016Z,2.17
2022-10-02T13:46:32.519Z,2.75
2022-10-02T13:51:39.436Z,2.10
2022-10-02T13:56:49.357Z,2.80
2022-10-02T14:01:58.683Z,2.75
2022-10-02T14:07:05.534Z,2.00
2022-10-02T14:12:19.691Z,2.75
2022-10-02T14:17:28.213Z,2.13
2022-10-02T14:22:35.378Z,1.90
2022-10-02T14:27:53.608Z,2.72
2022-10-02T14:33:04.441Z,2.60
2022-10-02T14:38:21.750Z,2.67
2022-10-02T14:43:50.116Z,2.25
2022-10-02T14:49:05.754Z,2.15
2022-10-02T14:54:17.985Z,2.55
2022-10-02T14:59:29.183Z,1.58
2022-10-02T15:04:42.211Z,2.22
2022-10-02T15:09:58.350Z,2.17
2022-10-02T15:15:05.664Z,2.00
2022-10-02T15:20:20.129Z,2.63
2022-10-02T15:25:26.083Z,2.17
2022-10-02T15:30:29.114Z,2.17
2022-10-02T15:40:38.918Z,2.53
2022-10-02T15:45:51.073Z,2.33
2022-10-02T15:50:55.457Z,2.03
2022-10-02T15:56:05.263Z,2.88
2022-10-02T16:01:14.986Z,2.25
2022-10-02T16:06:22.010Z,2.03
2022-10-02T16:11:37.935Z,2.65
2022-10-02T16:17:04.515Z,2.95
2022-10-02T16:22:17.888Z,2.90
2022-10-02T16:27:35.466Z,2.80
2022-10-02T16:32:40.347Z,17.55
2022-10-02T16:37:46.064Z,25.42
2022-10-02T16:42:52.688Z,3.42
2022-10-02T16:47:56.448Z,3.08
2022-10-02T16:53:01.900Z,3.55
2022-10-02T16:58:13.626Z,3.25
2022-10-02T17:03:22.482Z,2.88
2022-10-02T17:08:30.881Z,3.03
2022-10-02T17:13:43.155Z,2.85
2022-10-02T17:18:48.326Z,4.43
2022-10-02T17:23:58.765Z,3.25
2022-10-02T17:29:07.774Z,3.10
2022-10-02T17:34:17.878Z,3.22
2022-10-02T17:39:28.992Z,3.60
2022-10-02T17:44:43.081Z,3.00
2022-10-02T17:49:53.337Z,4.15
2022-10-02T17:55:19.545Z,4.45
2022-10-02T18:00:24.669Z,5.65
2022-10-02T18:05:33.496Z,6.35
2022-10-02T18:10:40.475Z,5.47
2022-10-02T18:15:54.738Z,6.22
2022-10-02T18:21:15.243Z,5.65
2022-10-02T18:26:24.806Z,4.47
2022-10-02T18:31:55.146Z,3.60
2022-10-02T18:37:09.669Z,4.38
2022-10-02T18:42:28.212Z,3.50
2022-10-02T18:47:41.891Z,3.80
2022-10-02T18:52:54.126Z,4.00
2022-10-02T18:58:07.367Z,4.00
2022-10-02T19:03:18.953Z,5.77
2022-10-02T19:08:24.092Z,6.22
2022-10-02T19:13:27.709Z,4.90
2022-10-02T19:18:32.844Z,5.00
2022-10-02T19:23:36.564Z,5.72
2022-10-02T19:28:46.226Z,5.05
2022-10-02T19:33:51.354Z,5.63
2022-10-02T19:38:55.363Z,4.90
2022-10-02T19:44:00.341Z,5.40
2022-10-02T19:49:05.747Z,4.90
2022-10-02T19:54:12.575Z,4.32
2022-10-02T19:59:17.924Z,4.43
2022-10-02T20:04:23.820Z,4.72
2022-10-02T20:09:30.689Z,5.90
2022-10-02T20:14:37.930Z,8.18
2022-10-02T20:19:45.144Z,5.75
2022-10-02T20:24:51.389Z,5.40
2022-10-02T20:29:57.516Z,6.63
2022-10-02T20:35:04.618Z,5.22
2022-10-02T20:40:09.606Z,6.03
2022-10-02T20:45:12.821Z,5.80
2022-10-02T20:50:36.441Z,6.32
2022-10-02T20:55:43.211Z,7.03
2022-10-02T21:00:52.768Z,6.63
2022-10-02T21:06:13.046Z,6.47
2022-10-02T21:11:20.335Z,6.65
2022-10-02T21:16:42.141Z,6.40
2022-10-02T21:22:14.874Z,6.25
2022-10-02T21:27:27.694Z,6.47
2022-10-02T21:32:49.278Z,7.18
2022-10-02T21:38:00.998Z,6.80
2022-10-02T21:43:13.564Z,6.75
2022-10-02T21:48:47.059Z,6.80
2022-10-02T21:54:07.909Z,6.68
2022-10-02T21:59:20.434Z,6.88
2022-10-02T22:04:40.648Z,9.25
2022-10-02T22:09:47.235Z,7.85
2022-10-02T22:14:53.931Z,6.53
2022-10-02T22:20:00.889Z,7.28
2022-10-02T22:25:12.042Z,7.00
2022-10-02T22:30:23.894Z,6.90
2022-10-02T22:35:31.268Z,6.53
2022-10-02T22:40:41.290Z,6.07
2022-10-02T22:45:49.508Z,5.63
2022-10-02T22:50:53.871Z,5.78
2022-10-02T22:55:56.768Z,5.82
2022-10-02T23:01:02.667Z,6.57
2022-10-02T23:06:07.137Z,7.57
2022-10-02T23:11:14.469Z,6.20
2022-10-02T23:16:23.619Z,5.65
2022-10-02T23:21:30.412Z,7.20
2022-10-02T23:26:34.697Z,7.30
2022-10-02T23:31:44.132Z,7.90
2022-10-02T23:36:48.299Z,8.52
2022-10-02T23:41:53.121Z,8.80
2022-10-02T23:47:08.978Z,9.07
2022-10-02T23:52:20.330Z,6.97
2022-10-02T23:57:33.626Z,7.63
